Time,TemperatureF,DewpointF,PressureIn,WindDirection,WindDirectionDegrees,WindSpeedMPH,WindSpeedGustMPH,Humidity,HourlyPrecipIn,Conditions,Clouds,dailyrainin,SolarRadiationWatts/m^2,SoftwareType,DateUTC
2013-04-18 00:22:00,32.0,23.0,-100.00,ENE,58,2.0,7.0,68,0.00,,,0.00,1.000000,,2013-04-18 07:22:00,
2013-04-18 00:32:00,32.0,23.0,-100.00,ENE,58,2.0,7.0,68,0.00,,,0.00,1.000000,,2013-04-18 07:32:00,
2013-04-18 00:42:00,32.0,23.0,-100.00,ENE,58,2.0,7.0,68,0.00,,,0.00,1.000000,,2013-04-18 07:42:00,
2013-04-18 00:52:00,32.0,23.0,-100.00,ENE,58,2.0,7.0,68,0.00,,,0.00,1.000000,,2013-04-18 07:52:00,
2013-04-18 01:22:00,31.0,23.0,-100.00,NE,51,3.0,5.0,71,0.00,,,0.00,1.000000,,2013-04-18 08:22:00,
2013-04-18 01:32:00,31.0,23.0,-100.00,NE,51,3.0,5.0,71,0.00,,,0.00,1.000000,,2013-04-18 08:32:00,
2013-04-18 01:42:00,31.0,23.0,-100.00,NE,51,3.0,5.0,71,0.00,,,0.00,1.000000,,2013-04-18 08:42:00,
2013-04-18 01:52:00,31.0,23.0,-100.00,NE,51,3.0,5.0,71,0.00,,,0.00,1.000000,,2013-04-18 08:52:00,
2013-04-18 02:22:00,31.0,23.0,-100.00,NE,34,4.0,5.0,71,0.00,,,-99.99,1.000000,,2013-04-18 09:22:00,
2013-04-18 02:32:00,31.0,23.0,-100.00,NE,34,4.0,5.0,71,0.00,,,-99.99,1.000000,,2013-04-18 09:32:00,
2013-04-18 02:42:00,31.0,23.0,-100.00,NE,34,4.0,5.0,71,0.00,,,-99.99,1.000000,,2013-04-18 09:42:00,
2013-04-18 02:52:00,31.0,23.0,-100.00,NE,34,4.0,5.0,71,0.00,,,-99.99,1.000000,,2013-04-18 09:52:00,
2013-04-18 03:23:00,27.0,22.0,-100.00,ENE,66,4.0,7.0,81,0.00,,,0.00,1.000000,,2013-04-18 10:23:00,
2013-04-18 03:32:00,27.0,22.0,-100.00,ENE,66,4.0,7.0,81,0.00,,,0.00,1.000000,,2013-04-18 10:32:00,
2013-04-18 03:42:00,27.0,22.0,-100.00,ENE,66,4.0,7.0,81,0.00,,,0.00,1.000000,,2013-04-18 10:42:00,
2013-04-18 03:52:00,27.0,22.0,-100.00,ENE,66,4.0,7.0,81,0.00,,,0.00,1.000000,,2013-04-18 10:52:00,
2013-04-18 04:22:00,29.0,23.0,-100.00,ENE,64,4.0,8.0,78,0.00,,,0.00,1.000000,,2013-04-18 11:22:00,
2013-04-18 04:32:00,29.0,23.0,-100.00,ENE,64,4.0,8.0,78,0.00,,,0.00,1.000000,,2013-04-18 11:32:00,
2013-04-18 04:42:00,29.0,23.0,-100.00,ENE,64,4.0,8.0,78,0.00,,,0.00,1.000000,,2013-04-18 11:42:00,
2013-04-18 04:52:00,29.0,23.0,-100.00,ENE,64,4.0,8.0,78,0.00,,,0.00,1.000000,,2013-04-18 11:52:00,
2013-04-18 05:22:00,27.0,22.0,-100.00,ENE,67,4.0,6.0,81,0.00,,,0.00,1.000000,,2013-04-18 12:22:00,
2013-04-18 05:32:00,27.0,22.0,-100.00,ENE,67,4.0,6.0,81,0.00,,,0.00,1.000000,,2013-04-18 12:32:00,
2013-04-18 05:42:00,27.0,22.0,-100.00,ENE,67,4.0,6.0,81,0.00,,,0.00,1.000000,,2013-04-18 12:42:00,
2013-04-18 05:52:00,27.0,22.0,-100.00,ENE,67,4.0,6.0,81,0.00,,,0.00,1.000000,,2013-04-18 12:52:00,
2013-04-18 06:22:00,28.0,23.0,-100.00,ENE,62,4.0,6.0,82,0.00,,,0.00,1.000000,,2013-04-18 13:22:00,
2013-04-18 06:32:00,28.0,23.0,-100.00,ENE,62,4.0,6.0,82,0.00,,,0.00,1.000000,,2013-04-18 13:32:00,
2013-04-18 06:42:00,28.0,23.0,-100.00,ENE,62,4.0,6.0,82,0.00,,,0.00,1.000000,,2013-04-18 13:42:00,
2013-04-18 06:52:00,28.0,23.0,-100.00,ENE,62,4.0,6.0,82,0.00,,,0.00,1.000000,,2013-04-18 13:52:00,
2013-04-18 07:22:00,29.0,23.0,-100.00,NE,34,4.0,6.0,79,0.00,,,0.00,9.000000,,2013-04-18 14:22:00,
2013-04-18 07:32:00,29.0,23.0,-100.00,NE,34,4.0,6.0,79,0.00,,,0.00,9.000000,,2013-04-18 14:32:00,
2013-04-18 07:42:00,29.0,23.0,-100.00,NE,34,4.0,6.0,79,0.00,,,0.00,9.000000,,2013-04-18 14:42:00,
2013-04-18 07:52:00,29.0,23.0,-100.00,NE,34,4.0,6.0,79,0.00,,,0.00,9.000000,,2013-04-18 14:52:00,
2013-04-18 08:22:00,35.0,26.0,-100.00,ENE,66,3.0,7.0,68,0.00,,,0.00,119.000000,,2013-04-18 15:22:00,
2013-04-18 08:33:00,35.0,26.0,-100.00,ENE,66,3.0,7.0,68,0.00,,,0.00,119.000000,,2013-04-18 15:33:00,
2013-04-18 08:42:00,35.0,26.0,-100.00,ENE,66,3.0,7.0,68,0.00,,,0.00,119.000000,,2013-04-18 15:42:00,
2013-04-18 08:52:00,35.0,26.0,-100.00,ENE,66,3.0,7.0,68,0.00,,,0.00,119.000000,,2013-04-18 15:52:00,
2013-04-18 09:22:00,41.0,26.0,-100.00,East,82,4.0,7.0,55,0.00,,,0.00,352.000000,,2013-04-18 16:22:00,
2013-04-18 09:33:00,41.0,26.0,-100.00,East,82,4.0,7.0,55,0.00,,,0.00,352.000000,,2013-04-18 16:33:00,
2013-04-18 09:42:00,41.0,26.0,-100.00,East,82,4.0,7.0,55,0.00,,,0.00,352.000000,,2013-04-18 16:42:00,
2013-04-18 09:52:00,41.0,26.0,-100.00,East,82,4.0,7.0,55,0.00,,,0.00,352.000000,,2013-04-18 16:52:00,
2013-04-18 10:22:00,44.0,27.0,-100.00,NNW,348,5.0,8.0,50,0.00,,,0.00,548.000000,,2013-04-18 17:22:00,
2013-04-18 10:33:00,44.0,27.0,-100.00,NNW,348,5.0,8.0,50,0.00,,,0.00,548.000000,,2013-04-18 17:33:00,
2013-04-18 10:42:00,44.0,27.0,-100.00,NNW,348,5.0,8.0,50,0.00,,,0.00,548.000000,,2013-04-18 17:42:00,
2013-04-18 10:52:00,44.0,27.0,-100.00,NNW,348,5.0,8.0,50,0.00,,,0.00,548.000000,,2013-04-18 17:52:00,
2013-04-18 11:22:00,48.0,29.0,-100.00,North,350,4.0,11.0,47,0.00,,,0.00,720.000000,,2013-04-18 18:22:00,
2013-04-18 11:32:00,48.0,29.0,-100.00,North,350,4.0,11.0,47,0.00,,,0.00,720.000000,,2013-04-18 18:32:00,
2013-04-18 11:42:00,48.0,29.0,-100.00,North,350,4.0,11.0,47,0.00,,,0.00,720.000000,,2013-04-18 18:42:00,
2013-04-18 11:52:00,48.0,29.0,-100.00,North,350,4.0,11.0,47,0.00,,,0.00,720.000000,,2013-04-18 18:52:00,
2013-04-18 12:22:00,51.0,31.0,-100.00,WSW,252,7.0,13.0,46,0.00,,,0.00,849.000000,,2013-04-18 19:22:00,
2013-04-18 12:32:00,51.0,31.0,-100.00,WSW,252,7.0,13.0,46,0.00,,,0.00,849.000000,,2013-04-18 19:32:00,
2013-04-18 12:42:00,51.0,31.0,-100.00,WSW,252,7.0,13.0,46,0.00,,,0.00,849.000000,,2013-04-18 19:42:00,
2013-04-18 12:52:00,51.0,31.0,-100.00,WSW,252,7.0,13.0,46,0.00,,,0.00,849.000000,,2013-04-18 19:52:00,
2013-04-18 13:22:00,53.0,31.0,-100.00,WSW,250,9.0,-999.0,43,0.00,,,0.00,,,2013-04-18 20:22:00,
2013-04-18 13:32:00,53.0,31.0,-100.00,WSW,250,9.0,-999.0,43,0.00,,,0.00,,,2013-04-18 20:32:00,
2013-04-18 13:42:00,53.0,31.0,-100.00,WSW,250,9.0,-999.0,43,0.00,,,0.00,,,2013-04-18 20:42:00,
2013-04-18 13:52:00,53.0,31.0,-100.00,WSW,250,9.0,-999.0,43,0.00,,,0.00,,,2013-04-18 20:52:00,
2013-04-18 14:22:00,57.0,32.0,-100.00,WSW,250,7.0,14.0,38,0.00,,,-99.99,948.000000,,2013-04-18 21:22:00,
2013-04-18 14:32:00,57.0,32.0,-100.00,WSW,250,7.0,14.0,38,0.00,,,-99.99,948.000000,,2013-04-18 21:32:00,
2013-04-18 14:43:00,57.0,32.0,-100.00,WSW,250,7.0,14.0,38,0.00,,,-99.99,948.000000,,2013-04-18 21:43:00,
2013-04-18 14:52:00,57.0,32.0,-100.00,WSW,250,7.0,14.0,38,0.00,,,-99.99,948.000000,,2013-04-18 21:52:00,
2013-04-18 15:22:00,58.0,31.0,-100.00,West,264,7.0,13.0,36,0.00,,,0.00,804.000000,,2013-04-18 22:22:00,
2013-04-18 15:32:00,58.0,31.0,-100.00,West,264,7.0,13.0,36,0.00,,,0.00,804.000000,,2013-04-18 22:32:00,
2013-04-18 15:42:00,58.0,31.0,-100.00,West,264,7.0,13.0,36,0.00,,,0.00,804.000000,,2013-04-18 22:42:00,
2013-04-18 15:52:00,58.0,31.0,-100.00,West,264,7.0,13.0,36,0.00,,,0.00,804.000000,,2013-04-18 22:52:00,
2013-04-18 16:21:00,60.0,34.0,-100.00,WSW,253,8.0,13.0,38,0.00,,,0.00,773.000000,,2013-04-18 23:21:00,
2013-04-18 16:32:00,60.0,34.0,-100.00,WSW,253,8.0,13.0,38,0.00,,,0.00,773.000000,,2013-04-18 23:32:00,
2013-04-18 16:42:00,60.0,34.0,-100.00,WSW,253,8.0,13.0,38,0.00,,,0.00,773.000000,,2013-04-18 23:42:00,
2013-04-18 16:52:00,60.0,34.0,-100.00,WSW,253,8.0,13.0,38,0.00,,,0.00,773.000000,,2013-04-18 23:52:00,
2013-04-18 17:21:00,60.0,34.0,-100.00,WSW,245,8.0,15.0,37,0.00,,,-99.99,599.000000,,2013-04-19 00:21:00,
2013-04-18 17:32:00,60.0,34.0,-100.00,WSW,245,8.0,15.0,37,0.00,,,-99.99,599.000000,,2013-04-19 00:32:00,
2013-04-18 17:42:00,60.0,34.0,-100.00,WSW,245,8.0,15.0,37,0.00,,,-99.99,599.000000,,2013-04-19 00:42:00,
2013-04-18 17:51:00,60.0,34.0,-100.00,WSW,245,8.0,15.0,37,0.00,,,-99.99,599.000000,,2013-04-19 00:51:00,
2013-04-18 18:21:00,58.0,34.0,-100.00,West,279,6.0,12.0,40,0.00,,,0.00,304.000000,,2013-04-19 01:21:00,
2013-04-18 18:31:00,58.0,34.0,-100.00,West,279,6.0,12.0,40,0.00,,,0.00,304.000000,,2013-04-19 01:31:00,
2013-04-18 18:42:00,58.0,34.0,-100.00,West,279,6.0,12.0,40,0.00,,,0.00,304.000000,,2013-04-19 01:42:00,
2013-04-18 18:52:00,58.0,34.0,-100.00,West,279,6.0,12.0,40,0.00,,,0.00,304.000000,,2013-04-19 01:52:00,
2013-04-18 19:21:00,56.0,35.0,-100.00,West,274,10.0,18.0,45,0.00,,,0.00,244.000000,,2013-04-19 02:21:00,
2013-04-18 19:32:00,56.0,35.0,-100.00,West,274,10.0,18.0,45,0.00,,,0.00,244.000000,,2013-04-19 02:32:00,
2013-04-18 19:42:00,56.0,35.0,-100.00,West,274,10.0,18.0,45,0.00,,,0.00,244.000000,,2013-04-19 02:42:00,
2013-04-18 19:51:00,56.0,35.0,-100.00,West,274,10.0,18.0,45,0.00,,,0.00,244.000000,,2013-04-19 02:51:00,
2013-04-18 20:21:00,50.0,38.0,-100.00,West,281,8.0,17.0,62,0.00,,,0.00,56.000000,,2013-04-19 03:21:00,
2013-04-18 20:32:00,50.0,38.0,-100.00,West,281,8.0,17.0,62,0.00,,,0.00,56.000000,,2013-04-19 03:32:00,
2013-04-18 20:43:00,50.0,38.0,-100.00,West,281,8.0,17.0,62,0.00,,,0.00,56.000000,,2013-04-19 03:43:00,
2013-04-18 20:53:00,50.0,38.0,-100.00,West,281,8.0,17.0,62,0.00,,,0.00,56.000000,,2013-04-19 03:53:00,
2013-04-18 21:23:00,47.0,37.0,-100.00,West,263,5.0,9.0,68,0.00,,,0.00,1.000000,,2013-04-19 04:23:00,
2013-04-18 21:33:00,47.0,37.0,-100.00,West,263,5.0,9.0,68,0.00,,,0.00,1.000000,,2013-04-19 04:33:00,
2013-04-18 21:43:00,47.0,37.0,-100.00,West,263,5.0,9.0,68,0.00,,,0.00,1.000000,,2013-04-19 04:43:00,
2013-04-18 21:52:00,47.0,37.0,-100.00,West,263,5.0,9.0,68,0.00,,,0.00,1.000000,,2013-04-19 04:52:00,
2013-04-18 22:22:00,44.0,37.0,-100.00,NW,325,3.0,7.0,76,0.00,,,0.00,1.000000,,2013-04-19 05:22:00,
2013-04-18 22:32:00,44.0,37.0,-100.00,NW,325,3.0,7.0,76,0.00,,,0.00,1.000000,,2013-04-19 05:32:00,
2013-04-18 22:42:00,44.0,37.0,-100.00,NW,325,3.0,7.0,76,0.00,,,0.00,1.000000,,2013-04-19 05:42:00,
2013-04-18 22:51:00,44.0,37.0,-100.00,NW,325,3.0,7.0,76,0.00,,,0.00,1.000000,,2013-04-19 05:51:00,
2013-04-18 23:22:00,42.0,37.0,-100.00,ESE,112,2.0,4.0,82,0.00,,,0.00,1.000000,,2013-04-19 06:22:00,
2013-04-18 23:32:00,42.0,37.0,-100.00,ESE,112,2.0,4.0,82,0.00,,,0.00,1.000000,,2013-04-19 06:32:00,
2013-04-18 23:42:00,42.0,37.0,-100.00,ESE,112,2.0,4.0,82,0.00,,,0.00,1.000000,,2013-04-19 06:42:00,
2013-04-18 23:52:00,42.0,37.0,-100.00,ESE,112,2.0,4.0,82,0.00,,,0.00,1.000000,,2013-04-19 06:52:00,